Time;durP1;ratioP1;P1;durP2;ratioP2;P2;SDS_P1;SDS_P2;PMS_P1;PMS_P2;Temp;Humidity;BMP_temperature;BMP_pressure;BME280_temperature;BME280_humidity;BME280_pressure;Samples;Min_cycle;Max_cycle;Signal;HPM_P1;HPM_P2
2023/08/27 00:01:30;;;;;;;4.85;2.30;;;13.40;99.90;;;;;;5065632;28;20059;-61
2023/08/27 00:03:56;;;;;;;2.72;2.40;;;13.40;99.90;;;;;;5047665;28;20037;-61
2023/08/27 00:06:22;;;;;;;2.40;2.20;;;13.30;99.90;;;;;;5048283;28;20052;-62
2023/08/27 00:08:47;;;;;;;6.78;2.42;;;13.30;99.90;;;;;;5082284;28;20037;-62
2023/08/27 00:11:13;;;;;;;2.63;2.33;;;13.30;99.90;;;;;;5055767;28;20368;-62
2023/08/27 00:13:39;;;;;;;4.00;2.38;;;13.30;99.90;;;;;;5048981;28;20530;-62
2023/08/27 00:16:08;;;;;;;2.13;2.03;;;13.20;99.90;;;;;;5047172;28;20066;-61
2023/08/27 00:18:33;;;;;;;2.17;2.08;;;13.20;99.90;;;;;;5059260;28;20119;-62
2023/08/27 00:20:59;;;;;;;3.20;2.60;;;13.20;99.90;;;;;;5059357;28;20040;-62
2023/08/27 00:23:28;;;;;;;5.07;2.60;;;13.20;99.90;;;;;;5066869;28;20094;-62
2023/08/27 00:25:54;;;;;;;4.65;2.67;;;13.20;99.90;;;;;;5069547;28;20060;-61
2023/08/27 00:28:20;;;;;;;2.95;2.70;;;13.20;99.90;;;;;;5048817;28;20139;-62
2023/08/27 00:30:45;;;;;;;3.63;2.70;;;13.20;99.90;;;;;;5067002;28;20136;-61
2023/08/27 00:33:11;;;;;;;3.03;2.50;;;13.20;99.90;;;;;;5064826;28;20048;-61
2023/08/27 00:35:37;;;;;;;6.03;2.63;;;13.30;99.90;;;;;;5041111;28;20471;-61
2023/08/27 00:38:06;;;;;;;3.55;3.03;;;13.20;99.90;;;;;;5058854;28;20063;-62
2023/08/27 00:40:32;;;;;;;6.73;3.10;;;13.20;99.90;;;;;;5058948;28;20039;-62
2023/08/27 00:42:57;;;;;;;3.65;3.20;;;13.20;99.90;;;;;;5059934;28;20032;-62
2023/08/27 00:45:26;;;;;;;3.40;2.80;;;13.30;99.90;;;;;;5069949;28;20040;-62
2023/08/27 00:47:52;;;;;;;3.40;2.83;;;13.20;99.90;;;;;;5070799;28;20059;-62
2023/08/27 00:50:19;;;;;;;4.22;2.67;;;13.20;99.90;;;;;;5068737;28;20074;-62
2023/08/27 00:52:45;;;;;;;6.30;3.28;;;13.20;99.90;;;;;;5080025;28;20048;-62
2023/08/27 00:55:10;;;;;;;2.95;2.75;;;13.20;99.90;;;;;;5050563;28;20052;-62
2023/08/27 00:57:38;;;;;;;5.78;3.00;;;13.20;99.90;;;;;;5070670;28;20107;-62
2023/08/27 01:00:09;;;;;;;4.03;2.45;;;13.10;99.90;;;;;;5034400;28;20044;-62
2023/08/27 01:02:35;;;;;;;2.75;2.58;;;13.20;99.90;;;;;;5069814;28;20372;-62
2023/08/27 01:05:02;;;;;;;4.15;2.65;;;13.10;99.90;;;;;;5052298;28;20040;-62
2023/08/27 01:07:48;;;;;;;3.25;2.58;;;13.10;99.90;;;;;;5084006;28;20098;-62
2023/08/27 01:10:29;;;;;;;2.95;2.63;;;13.10;99.90;;;;;;5058318;28;20107;-62
2023/08/27 01:13:02;;;;;;;5.47;2.75;;;13.00;99.90;;;;;;5047841;28;20160;-62
2023/08/27 01:15:29;;;;;;;5.30;3.03;;;13.00;99.90;;;;;;5062804;28;20562;-62
2023/08/27 01:17:57;;;;;;;5.60;2.53;;;13.00;99.90;;;;;;5057850;28;20032;-62
2023/08/27 01:20:23;;;;;;;4.78;3.03;;;13.00;99.90;;;;;;5058001;28;20238;-62
2023/08/27 01:22:49;;;;;;;3.40;3.08;;;13.00;99.90;;;;;;5048564;28;20040;-62
2023/08/27 01:25:19;;;;;;;3.40;2.90;;;12.90;99.90;;;;;;5040382;28;20182;-62
2023/08/27 01:28:11;;;;;;;5.05;3.30;;;12.80;99.90;;;;;;5065752;28;20061;-62
2023/08/27 01:30:43;;;;;;;4.60;2.70;;;12.90;99.90;;;;;;5068881;28;20405;-62
2023/08/27 01:33:16;;;;;;;6.05;3.05;;;12.90;99.90;;;;;;5046499;28;20154;-62
2023/08/27 01:35:44;;;;;;;2.88;2.78;;;12.80;99.90;;;;;;5062841;28;20094;-62
2023/08/27 01:38:11;;;;;;;5.50;2.88;;;12.70;99.90;;;;;;5042870;28;20052;-62
2023/08/27 01:40:38;;;;;;;3.40;3.10;;;12.70;99.90;;;;;;5069525;28;20494;-62
2023/08/27 01:43:03;;;;;;;6.25;2.70;;;12.70;99.90;;;;;;5067377;28;20094;-62
2023/08/27 01:45:29;;;;;;;7.90;3.20;;;12.70;99.90;;;;;;5069338;28;20044;-62
2023/08/27 01:47:55;;;;;;;4.25;3.28;;;12.70;99.90;;;;;;5043699;28;20515;-62
2023/08/27 01:50:20;;;;;;;7.18;3.15;;;12.70;99.90;;;;;;5061487;28;20127;-62
2023/08/27 01:52:46;;;;;;;3.17;2.90;;;12.70;99.90;;;;;;5031206;28;20045;-62
2023/08/27 01:55:12;;;;;;;3.90;3.10;;;12.80;99.90;;;;;;5065215;28;20037;-62
2023/08/27 01:57:38;;;;;;;3.38;3.08;;;12.70;99.90;;;;;;5068954;28;20067;-62
2023/08/27 02:00:08;;;;;;;3.22;2.92;;;12.80;99.90;;;;;;5067691;28;20040;-62
2023/08/27 02:02:36;;;;;;;3.78;3.20;;;12.80;99.90;;;;;;5069107;28;20048;-62
2023/08/27 02:05:08;;;;;;;3.10;2.90;;;12.80;99.90;;;;;;5034207;28;20379;-62
2023/08/27 02:07:36;;;;;;;4.60;3.42;;;12.80;99.90;;;;;;5042631;28;20052;-62
2023/08/27 02:10:03;;;;;;;3.33;3.00;;;12.80;99.90;;;;;;5052826;28;20144;-62
2023/08/27 02:12:29;;;;;;;8.02;3.60;;;12.80;99.90;;;;;;5063232;28;20052;-62
2023/08/27 02:14:55;;;;;;;4.28;2.92;;;12.80;99.90;;;;;;5069151;28;20094;-62
2023/08/27 02:17:20;;;;;;;6.35;3.28;;;12.80;99.90;;;;;;5067152;28;20101;-62
2023/08/27 02:19:46;;;;;;;8.27;3.42;;;12.80;99.90;;;;;;5068994;28;20147;-62
2023/08/27 02:22:12;;;;;;;4.75;3.17;;;12.80;99.90;;;;;;5082947;28;20131;-62
2023/08/27 02:24:38;;;;;;;3.28;3.08;;;12.80;99.90;;;;;;5068308;28;20466;-62
2023/08/27 02:27:04;;;;;;;7.80;3.40;;;12.80;99.90;;;;;;5075205;28;20119;-62
2023/08/27 02:29:29;;;;;;;3.53;2.90;;;12.80;99.90;;;;;;5070537;28;20056;-62
2023/08/27 02:31:55;;;;;;;3.60;3.30;;;12.80;99.90;;;;;;5069287;28;20048;-62
2023/08/27 02:34:21;;;;;;;3.75;3.45;;;12.80;99.90;;;;;;5048487;28;20056;-62
2023/08/27 02:36:46;;;;;;;4.10;3.55;;;12.90;99.90;;;;;;5075562;28;20048;-62
2023/08/27 02:39:12;;;;;;;4.10;3.40;;;12.90;99.90;;;;;;5067043;28;20553;-62
2023/08/27 02:41:38;;;;;;;3.38;2.75;;;12.90;99.90;;;;;;5068030;28;20043;-62
2023/08/27 02:44:05;;;;;;;5.43;3.45;;;12.80;99.90;;;;;;5067516;28;20600;-61
2023/08/27 02:46:31;;;;;;;4.47;3.30;;;12.90;99.90;;;;;;5054680;28;20048;-62
2023/08/27 02:48:56;;;;;;;6.22;3.25;;;12.90;99.90;;;;;;5084114;28;20048;-62
2023/08/27 02:51:22;;;;;;;2.90;2.78;;;12.90;99.90;;;;;;5081963;28;20084;-62
2023/08/27 02:53:51;;;;;;;6.43;3.08;;;13.00;99.90;;;;;;5068321;28;20040;-62
2023/08/27 02:56:17;;;;;;;4.47;3.38;;;13.00;99.90;;;;;;5067664;28;20104;-62
2023/08/27 02:58:43;;;;;;;3.40;3.10;;;13.00;99.90;;;;;;5067977;28;20425;-62
2023/08/27 03:01:16;;;;;;;3.47;2.85;;;12.90;99.90;;;;;;5067424;28;20044;-62
2023/08/27 03:03:43;;;;;;;4.22;2.80;;;13.00;99.90;;;;;;5067018;28;20094;-62
2023/08/27 03:06:08;;;;;;;2.92;2.72;;;12.90;99.90;;;;;;5068055;28;20036;-62
2023/08/27 03:08:34;;;;;;;3.90;2.75;;;12.90;99.90;;;;;;5066301;28;20091;-62
2023/08/27 03:11:00;;;;;;;2.83;2.63;;;12.90;99.90;;;;;;5054018;28;20059;-62
2023/08/27 03:13:25;;;;;;;3.08;2.80;;;12.90;99.90;;;;;;5066240;28;20060;-62
2023/08/27 03:15:51;;;;;;;5.53;3.10;;;12.90;99.90;;;;;;5067595;28;20051;-62
2023/08/27 03:18:17;;;;;;;3.25;3.05;;;12.80;99.90;;;;;;5072116;28;20057;-62
2023/08/27 03:20:42;;;;;;;6.28;3.38;;;12.80;99.90;;;;;;5029396;28;20056;-63
2023/08/27 03:23:08;;;;;;;3.53;3.22;;;12.90;99.90;;;;;;5053352;28;20048;-62
2023/08/27 03:25:34;;;;;;;15.30;5.95;;;12.80;99.90;;;;;;5081951;28;20044;-62
2023/08/27 03:27:59;;;;;;;3.55;3.25;;;12.80;99.90;;;;;;5049383;28;20406;-62
2023/08/27 03:30:25;;;;;;;4.70;3.40;;;12.80;99.90;;;;;;5065730;28;20060;-62
2023/08/27 03:32:51;;;;;;;3.35;3.00;;;12.80;99.90;;;;;;5067971;28;20089;-62
2023/08/27 03:35:17;;;;;;;4.53;3.40;;;12.70;99.90;;;;;;5065968;28;20032;-62
2023/08/27 03:37:43;;;;;;;3.22;3.00;;;12.70;99.90;;;;;;5067103;28;20165;-62
2023/08/27 03:40:09;;;;;;;4.88;3.25;;;12.70;99.90;;;;;;5048185;28;20238;-62
2023/08/27 03:42:34;;;;;;;4.68;3.20;;;12.70;99.90;;;;;;5066656;28;20238;-62
2023/08/27 03:45:00;;;;;;;3.17;2.75;;;12.70;99.90;;;;;;5067268;28;20123;-62
2023/08/27 03:47:27;;;;;;;5.05;2.92;;;12.70;99.90;;;;;;5066172;28;20036;-62
2023/08/27 03:49:53;;;;;;;7.75;3.20;;;12.70;99.90;;;;;;5066997;28;20127;-62
2023/08/27 03:52:19;;;;;;;4.43;3.00;;;12.70;99.90;;;;;;5065512;28;20170;-62
2023/08/27 03:54:44;;;;;;;3.30;3.10;;;12.60;99.90;;;;;;5049100;28;20260;-62
2023/08/27 03:57:10;;;;;;;5.57;2.72;;;12.60;99.90;;;;;;5047709;28;20222;-62
2023/08/27 03:59:36;;;;;;;4.10;3.60;;;12.60;99.90;;;;;;5066741;28;20067;-62
2023/08/27 04:02:02;;;;;;;4.90;3.33;;;12.60;99.90;;;;;;5065961;28;20532;-62
2023/08/27 04:04:29;;;;;;;4.88;2.92;;;12.60;99.90;;;;;;5048298;28;20167;-62
2023/08/27 04:06:55;;;;;;;4.00;2.97;;;12.60;99.90;;;;;;5067280;28;20068;-62
2023/08/27 04:09:20;;;;;;;4.47;3.40;;;12.60;99.90;;;;;;5061092;28;20033;-62
2023/08/27 04:11:46;;;;;;;5.18;2.90;;;12.60;99.90;;;;;;5056916;28;20037;-62
2023/08/27 04:14:12;;;;;;;3.53;3.22;;;12.60;99.90;;;;;;5047797;28;20486;-62
2023/08/27 04:16:38;;;;;;;4.18;3.28;;;12.60;99.90;;;;;;5070545;28;20044;-62
2023/08/27 04:19:03;;;;;;;3.00;2.80;;;12.60;99.90;;;;;;5051894;28;20090;-62
2023/08/27 04:21:30;;;;;;;4.60;3.05;;;12.50;99.90;;;;;;5070636;28;20033;-62
2023/08/27 04:23:55;;;;;;;3.53;3.22;;;12.60;99.90;;;;;;5038142;28;20862;-62
2023/08/27 04:26:22;;;;;;;3.85;3.53;;;12.60;99.90;;;;;;5069407;28;20056;-62
2023/08/27 04:28:50;;;;;;;6.43;3.10;;;12.50;99.90;;;;;;5070273;28;20066;-62
2023/08/27 04:31:16;;;;;;;3.40;3.10;;;12.50;99.90;;;;;;5050989;28;20106;-63
2023/08/27 04:33:42;;;;;;;5.35;3.20;;;12.60;99.90;;;;;;5070104;28;20048;-62
2023/08/27 04:36:08;;;;;;;4.57;3.00;;;12.50;99.90;;;;;;5069464;28;20051;-62
2023/08/27 04:38:34;;;;;;;3.55;2.90;;;12.50;99.90;;;;;;5070819;28;20037;-62
2023/08/27 04:41:00;;;;;;;4.82;3.30;;;12.50;99.90;;;;;;5070109;28;20410;-62
2023/08/27 04:43:26;;;;;;;3.55;3.15;;;12.50;99.90;;;;;;5051850;28;20041;-62
2023/08/27 04:45:53;;;;;;;3.67;3.38;;;12.50;99.90;;;;;;5069953;28;20044;-62
2023/08/27 04:48:19;;;;;;;3.35;3.13;;;12.40;99.90;;;;;;5069178;28;20048;-62
2023/08/27 04:50:48;;;;;;;3.53;3.22;;;12.50;99.90;;;;;;5070290;28;20052;-62
2023/08/27 04:53:14;;;;;;;3.40;3.10;;;12.50;99.90;;;;;;5069045;28;20060;-62
2023/08/27 04:55:40;;;;;;;4.40;3.75;;;12.50;99.90;;;;;;5070010;28;20080;-62
2023/08/27 04:58:07;;;;;;;7.05;2.75;;;12.50;99.90;;;;;;5069158;28;20080;-62
2023/08/27 05:00:33;;;;;;;3.22;2.92;;;12.60;99.90;;;;;;5051857;28;20049;-62
2023/08/27 05:03:05;;;;;;;3.03;2.72;;;12.60;99.90;;;;;;5070639;28;20105;-62
2023/08/27 05:05:30;;;;;;;5.68;2.83;;;12.60;99.90;;;;;;5052600;28;20424;-62
2023/08/27 05:07:56;;;;;;;5.68;3.25;;;12.60;99.90;;;;;;5069723;28;20362;-62
2023/08/27 05:10:22;;;;;;;3.67;3.30;;;12.70;99.90;;;;;;5037522;28;20499;-62
2023/08/27 05:12:48;;;;;;;3.88;3.53;;;12.70;99.90;;;;;;5068507;28;20061;-62
2023/08/27 05:15:16;;;;;;;6.07;3.30;;;12.80;99.90;;;;;;5068661;28;20758;-62
2023/08/27 05:17:41;;;;;;;5.78;3.63;;;12.90;99.90;;;;;;5069216;28;20066;-62
2023/08/27 05:20:09;;;;;;;5.75;3.33;;;12.90;99.90;;;;;;5069643;28;20094;-62
2023/08/27 05:22:34;;;;;;;5.95;4.00;;;13.00;99.90;;;;;;5069004;28;20123;-62
2023/08/27 05:25:00;;;;;;;5.47;3.42;;;13.00;99.90;;;;;;5069616;28;20465;-62
2023/08/27 05:27:26;;;;;;;3.25;2.95;;;13.10;99.90;;;;;;5067206;28;20049;-62
2023/08/27 05:29:52;;;;;;;4.72;3.28;;;13.00;99.90;;;;;;5069285;28;20391;-62
2023/08/27 05:32:17;;;;;;;3.50;3.20;;;13.10;99.90;;;;;;5049924;28;20487;-62
2023/08/27 05:34:43;;;;;;;3.30;2.90;;;13.10;99.90;;;;;;5051610;28;20048;-62
2023/08/27 05:37:09;;;;;;;9.65;3.10;;;13.10;99.90;;;;;;5053670;28;20506;-62
2023/08/27 05:39:34;;;;;;;3.53;3.22;;;13.20;99.90;;;;;;5069152;28;20052;-62
2023/08/27 05:42:01;;;;;;;4.32;3.88;;;13.20;99.90;;;;;;5068931;28;20063;-62
2023/08/27 05:44:26;;;;;;;3.60;3.30;;;13.30;99.90;;;;;;5067996;28;20041;-62
2023/08/27 05:46:52;;;;;;;3.50;3.20;;;13.30;99.90;;;;;;5051060;28;20037;-63
2023/08/27 05:49:18;;;;;;;3.22;3.03;;;13.30;99.90;;;;;;5059000;28;20043;-62
2023/08/27 05:51:43;;;;;;;4.70;2.85;;;13.30;99.90;;;;;;5050273;28;20056;-62
2023/08/27 05:54:09;;;;;;;7.35;3.53;;;13.40;99.90;;;;;;5068380;28;20099;-62
2023/08/27 05:56:35;;;;;;;5.25;3.20;;;13.40;99.90;;;;;;5051457;28;20439;-62
2023/08/27 05:59:00;;;;;;;9.45;3.55;;;13.50;99.90;;;;;;5068148;28;20064;-62
2023/08/27 06:01:27;;;;;;;7.85;3.17;;;13.50;99.90;;;;;;5068514;28;20103;-62
2023/08/27 06:03:53;;;;;;;3.80;3.10;;;13.50;99.90;;;;;;5068984;28;20048;-62
2023/08/27 06:06:18;;;;;;;3.47;3.15;;;13.60;99.90;;;;;;5067639;28;20072;-63
2023/08/27 06:08:44;;;;;;;4.35;3.72;;;13.70;99.90;;;;;;5067968;28;20053;-62
2023/08/27 06:11:10;;;;;;;3.60;3.28;;;13.70;99.90;;;;;;5053059;28;20048;-62
2023/08/27 06:13:36;;;;;;;3.08;2.88;;;13.80;99.90;;;;;;5051271;28;20049;-62
2023/08/27 06:16:02;;;;;;;7.03;2.70;;;13.90;99.90;;;;;;5049457;28;20056;-62
2023/08/27 06:18:28;;;;;;;4.93;3.08;;;13.90;99.90;;;;;;5068192;28;20047;-63
2023/08/27 06:20:54;;;;;;;3.92;3.17;;;13.90;99.90;;;;;;5068322;28;20115;-62
2023/08/27 06:23:20;;;;;;;3.60;2.92;;;14.00;99.90;;;;;;5049583;28;20059;-62
2023/08/27 06:25:45;;;;;;;3.25;2.95;;;14.10;99.90;;;;;;5070688;28;20054;-63
2023/08/27 06:28:17;;;;;;;6.38;3.42;;;14.20;99.90;;;;;;5035851;28;20091;-62
2023/08/27 06:30:43;;;;;;;3.65;3.35;;;14.30;99.90;;;;;;5072457;28;20071;-62
2023/08/27 06:33:10;;;;;;;4.90;3.65;;;14.50;99.90;;;;;;5073561;28;20548;-63
2023/08/27 06:35:36;;;;;;;3.80;3.40;;;14.60;99.90;;;;;;5050536;28;20432;-62
2023/08/27 06:38:03;;;;;;;5.28;3.30;;;14.80;99.90;;;;;;5046255;28;20040;-62
2023/08/27 06:40:29;;;;;;;5.25;3.40;;;15.00;99.90;;;;;;5073335;28;20132;-63
2023/08/27 06:42:56;;;;;;;6.38;3.60;;;15.10;99.90;;;;;;5078897;28;20115;-62
2023/08/27 06:45:22;;;;;;;7.65;3.45;;;15.10;99.90;;;;;;5073919;28;20059;-62
2023/08/27 06:47:47;;;;;;;9.55;3.40;;;15.10;99.90;;;;;;5075640;28;20048;-62
2023/08/27 06:50:13;;;;;;;4.97;3.00;;;15.20;99.90;;;;;;5071511;28;20039;-62
2023/08/27 06:52:39;;;;;;;5.20;3.67;;;15.30;99.90;;;;;;5042021;28;20457;-62
2023/08/27 06:55:05;;;;;;;6.20;3.72;;;15.20;99.90;;;;;;5066978;28;20136;-62
2023/08/27 06:57:31;;;;;;;3.97;3.67;;;15.30;99.90;;;;;;5067588;28;20059;-62
2023/08/27 06:59:56;;;;;;;4.60;3.08;;;15.30;99.90;;;;;;5049517;28;20048;-62
2023/08/27 07:02:22;;;;;;;8.45;3.60;;;15.30;99.90;;;;;;5063118;28;21176;-62
2023/08/27 07:04:48;;;;;;;5.35;3.20;;;15.20;99.90;;;;;;5019970;28;20040;-62
2023/08/27 07:07:14;;;;;;;3.38;3.00;;;15.20;99.90;;;;;;5054889;28;20028;-62
2023/08/27 07:09:39;;;;;;;5.00;2.20;;;15.10;99.90;;;;;;5034363;28;20491;-62
2023/08/27 07:12:06;;;;;;;3.63;2.50;;;15.00;99.90;;;;;;5051299;28;20767;-62
2023/08/27 07:14:31;;;;;;;2.70;2.45;;;14.90;99.90;;;;;;5051870;28;20124;-62
2023/08/27 07:16:57;;;;;;;5.43;2.42;;;14.90;99.90;;;;;;5054571;28;20128;-62
2023/08/27 07:19:23;;;;;;;3.83;2.50;;;14.90;99.90;;;;;;5049630;28;20095;-62
2023/08/27 07:21:48;;;;;;;2.88;2.67;;;14.80;99.90;;;;;;5030094;28;20041;-62
2023/08/27 07:24:14;;;;;;;2.88;2.17;;;14.80;99.90;;;;;;5027759;28;20076;-63
2023/08/27 07:26:40;;;;;;;7.53;2.33;;;14.70;99.90;;;;;;5047345;28;20049;-63
2023/08/27 07:29:06;;;;;;;2.53;2.30;;;14.70;99.90;;;;;;5029672;28;20084;-63
2023/08/27 07:31:31;;;;;;;2.90;1.80;;;14.70;99.90;;;;;;5043953;28;20036;-62
2023/08/27 07:33:57;;;;;;;3.55;2.25;;;14.60;99.90;;;;;;5040828;28;20497;-62
2023/08/27 07:36:23;;;;;;;3.70;1.92;;;14.60;99.90;;;;;;5039094;28;20037;-62
2023/08/27 07:38:49;;;;;;;7.45;1.92;;;14.60;99.90;;;;;;5022224;28;20091;-62
2023/08/27 07:41:15;;;;;;;6.97;2.35;;;14.60;99.90;;;;;;5049476;28;20514;-63
2023/08/27 07:43:40;;;;;;;2.90;1.95;;;14.50;99.90;;;;;;5058415;28;20051;-63
2023/08/27 07:46:06;;;;;;;4.57;2.22;;;14.50;99.90;;;;;;5043515;28;20038;-63
2023/08/27 07:48:32;;;;;;;2.42;1.85;;;14.40;99.90;;;;;;5047669;28;20107;-62
2023/08/27 07:50:58;;;;;;;1.70;1.60;;;14.40;99.90;;;;;;5056076;28;20055;-62
2023/08/27 07:53:25;;;;;;;3.70;1.80;;;14.40;99.90;;;;;;5002888;28;20051;-62
2023/08/27 07:55:50;;;;;;;10.60;1.98;;;14.40;99.90;;;;;;5018455;28;20037;-62
2023/08/27 07:58:16;;;;;;;3.33;1.70;;;14.40;99.90;;;;;;5036793;28;20128;-63
2023/08/27 08:00:42;;;;;;;2.08;1.80;;;14.30;99.90;;;;;;5048165;28;20052;-62
2023/08/27 08:03:08;;;;;;;1.70;1.55;;;14.30;99.90;;;;;;5005470;28;20435;-62
2023/08/27 08:05:34;;;;;;;4.97;1.80;;;14.30;99.90;;;;;;5044011;28;20037;-62
2023/08/27 08:08:00;;;;;;;2.83;1.67;;;14.30;99.90;;;;;;5026262;28;20325;-62
2023/08/27 08:10:25;;;;;;;6.85;2.85;;;14.30;99.90;;;;;;5033628;28;20057;-62
2023/08/27 08:12:52;;;;;;;4.47;1.83;;;14.40;99.90;;;;;;5050169;28;20040;-62
2023/08/27 08:15:18;;;;;;;2.22;1.70;;;14.50;99.90;;;;;;5059978;28;20048;-62
2023/08/27 08:17:44;;;;;;;2.00;1.58;;;14.50;99.90;;;;;;5035703;28;20076;-62
2023/08/27 08:20:12;;;;;;;1.50;1.40;;;14.70;99.90;;;;;;5035219;28;20131;-62
2023/08/27 08:22:38;;;;;;;3.53;1.70;;;14.70;99.90;;;;;;5041274;28;20041;-62
2023/08/27 08:25:05;;;;;;;4.00;1.83;;;14.80;99.90;;;;;;5046138;28;20128;-62
2023/08/27 08:27:31;;;;;;;3.33;1.83;;;14.90;99.90;;;;;;5028058;28;20049;-62
2023/08/27 08:29:57;;;;;;;3.33;1.80;;;15.20;99.90;;;;;;5052745;28;20138;-63
2023/08/27 08:32:23;;;;;;;2.15;1.90;;;15.60;99.90;;;;;;5052304;28;20127;-62
2023/08/27 08:34:48;;;;;;;2.15;1.85;;;16.20;99.90;;;;;;5031223;28;20053;-62
2023/08/27 08:37:14;;;;;;;1.58;1.48;;;16.60;99.90;;;;;;5028123;28;20476;-62
2023/08/27 08:39:40;;;;;;;2.25;1.45;;;16.90;99.90;;;;;;5062651;28;20045;-62
2023/08/27 08:42:19;;;;;;;1.60;1.30;;;17.10;99.90;;;;;;5063116;28;20056;-62
2023/08/27 08:44:49;;;;;;;2.65;1.17;;;17.20;99.90;;;;;;5062789;28;20041;-62
2023/08/27 08:47:19;;;;;;;2.40;0.68;;;17.40;99.90;;;;;;5060882;28;20060;-62
2023/08/27 08:49:47;;;;;;;;;;;17.60;99.90;;;;;;5060740;28;20048;-62
2023/08/27 08:52:20;;;;;;;0.60;0.30;;;17.70;99.90;;;;;;5049582;28;20433;-63
2023/08/27 08:54:51;;;;;;;0.70;0.30;;;17.80;99.90;;;;;;5027684;28;20085;-62
2023/08/27 08:57:17;;;;;;;0.20;0.20;;;17.90;99.90;;;;;;5039928;28;20037;-62
2023/08/27 08:59:44;;;;;;;0.30;0.30;;;18.00;99.90;;;;;;5055593;28;20033;-62
2023/08/27 09:02:12;;;;;;;0.30;0.30;;;18.10;99.90;;;;;;5061773;28;20077;-62
2023/08/27 09:04:40;;;;;;;0.28;0.25;;;18.20;99.90;;;;;;5057722;28;20499;-62
2023/08/27 09:07:06;;;;;;;0.93;0.30;;;18.30;99.90;;;;;;5052554;28;20059;-62
2023/08/27 09:09:32;;;;;;;0.50;0.50;;;18.50;99.90;;;;;;5061648;28;20079;-62
2023/08/27 09:11:59;;;;;;;0.32;0.30;;;18.50;99.90;;;;;;5059945;28;20557;-62
2023/08/27 09:14:25;;;;;;;0.40;0.40;;;18.60;99.90;;;;;;5067695;28;20047;-62
2023/08/27 09:16:51;;;;;;;1.27;0.43;;;18.70;99.90;;;;;;5068278;28;20079;-62
2023/08/27 09:19:18;;;;;;;0.43;0.43;;;18.80;99.90;;;;;;5051559;28;20398;-63
2023/08/27 09:21:44;;;;;;;0.40;0.40;;;18.90;99.90;;;;;;5068860;28;20143;-62
2023/08/27 09:24:11;;;;;;;1.02;0.40;;;19.00;99.90;;;;;;5069260;28;20056;-63
2023/08/27 09:26:38;;;;;;;1.42;0.55;;;19.10;99.90;;;;;;5050866;28;20056;-63
2023/08/27 09:29:08;;;;;;;0.40;0.40;;;19.20;99.90;;;;;;5068386;28;20044;-63
2023/08/27 09:31:42;;;;;;;1.92;0.70;;;19.20;99.90;;;;;;5068219;28;20120;-62
2023/08/27 09:34:09;;;;;;;0.40;0.40;;;19.30;99.90;;;;;;5065209;28;20045;-63
2023/08/27 09:36:38;;;;;;;0.98;0.60;;;19.30;99.90;;;;;;5069663;28;20144;-62
2023/08/27 09:39:11;;;;;;;1.05;0.70;;;19.30;99.90;;;;;;5067862;28;20559;-62
2023/08/27 09:41:44;;;;;;;1.45;0.75;;;19.40;99.90;;;;;;5046506;28;20092;-62
2023/08/27 09:44:10;;;;;;;2.53;1.10;;;19.60;99.90;;;;;;5078030;28;20044;-62
2023/08/27 09:46:37;;;;;;;1.30;0.90;;;19.70;99.90;;;;;;5036247;28;20045;-64
2023/08/27 09:49:07;;;;;;;1.95;0.88;;;19.70;99.90;;;;;;5087277;28;20066;-64
2023/08/27 09:51:39;;;;;;;2.78;0.80;;;19.60;97.40;;;;;;5071245;28;20123;-64
2023/08/27 09:54:16;;;;;;;4.22;1.42;;;19.60;97.30;;;;;;5059398;28;20189;-64
2023/08/27 09:56:46;;;;;;;0.70;0.50;;;19.50;96.30;;;;;;5064320;28;20055;-64
2023/08/27 09:59:17;;;;;;;0.82;0.70;;;19.50;97.90;;;;;;5064710;28;20155;-64
2023/08/27 10:01:47;;;;;;;1.38;0.60;;;19.50;91.60;;;;;;5046454;28;20459;-64
2023/08/27 10:04:14;;;;;;;0.57;0.57;;;19.60;91.30;;;;;;5044043;28;20051;-64
2023/08/27 10:06:40;;;;;;;3.72;1.05;;;19.70;95.10;;;;;;5053919;28;20052;-64
2023/08/27 10:09:07;;;;;;;0.82;0.60;;;19.80;98.90;;;;;;5062175;28;20040;-64
2023/08/27 10:11:33;;;;;;;6.43;1.00;;;19.80;93.50;;;;;;5037088;28;20048;-64
2023/08/27 10:14:00;;;;;;;0.85;0.70;;;19.90;91.60;;;;;;5063127;28;20076;-64
2023/08/27 10:16:28;;;;;;;2.83;0.70;;;20.00;90.60;;;;;;5064311;28;20040;-65
2023/08/27 10:18:55;;;;;;;4.38;0.93;;;20.10;93.30;;;;;;5059639;28;20052;-65
2023/08/27 10:21:22;;;;;;;0.80;0.73;;;20.20;93.70;;;;;;5059788;28;20075;-64
2023/08/27 10:23:48;;;;;;;1.00;0.80;;;20.30;82.50;;;;;;5062262;28;20048;-64
2023/08/27 10:26:15;;;;;;;1.52;0.90;;;20.30;75.80;;;;;;5045783;28;20390;-64
2023/08/27 10:28:43;;;;;;;1.33;0.82;;;20.40;68.40;;;;;;5035357;28;20452;-65
2023/08/27 10:31:09;;;;;;;0.70;0.70;;;20.40;77.40;;;;;;5046678;28;20072;-64
2023/08/27 10:33:35;;;;;;;1.65;0.77;;;20.50;74.70;;;;;;5047360;28;20124;-64
2023/08/27 10:36:25;;;;;;;0.73;0.60;;;20.50;75.20;;;;;;5044249;28;20045;-64
2023/08/27 10:38:52;;;;;;;2.38;0.75;;;20.50;83.50;;;;;;5029650;28;20083;-65
2023/08/27 10:41:22;;;;;;;2.05;0.50;;;20.40;72.00;;;;;;5048944;28;20048;-64
2023/08/27 10:43:48;;;;;;;1.00;0.77;;;20.40;66.70;;;;;;5008208;28;20056;-65
2023/08/27 10:46:18;;;;;;;2.97;0.70;;;20.30;68.60;;;;;;5049571;28;20037;-64
2023/08/27 10:48:54;;;;;;;1.52;1.00;;;20.00;57.00;;;;;;4993204;28;20049;-64
2023/08/27 10:51:26;;;;;;;1.00;0.95;;;19.80;57.10;;;;;;5029524;28;20060;-64
2023/08/27 10:53:52;;;;;;;1.05;0.85;;;19.60;59.80;;;;;;5030809;28;20040;-64
2023/08/27 10:56:37;;;;;;;1.05;0.38;;;19.50;64.50;;;;;;5033686;28;20415;-64
2023/08/27 10:59:09;;;;;;;0.70;0.70;;;19.30;69.60;;;;;;5052393;28;20108;-64
2023/08/27 11:01:58;;;;;;;0.65;0.65;;;19.10;69.00;;;;;;5045828;28;20346;-65
2023/08/27 11:04:38;;;;;;;2.88;0.57;;;19.20;85.00;;;;;;5043725;28;20049;-64
2023/08/27 11:07:11;;;;;;;1.85;0.80;;;19.30;73.80;;;;;;5017804;28;20487;-64
2023/08/27 11:09:55;;;;;;;1.20;0.70;;;19.30;71.20;;;;;;5042900;28;20039;-65
2023/08/27 11:12:24;;;;;;;0.68;0.50;;;19.20;75.80;;;;;;5047656;28;20064;-65
2023/08/27 11:14:51;;;;;;;2.43;0.60;;;19.30;74.40;;;;;;5045946;28;20430;-64
2023/08/27 11:17:28;;;;;;;1.58;0.60;;;19.40;77.80;;;;;;5031526;28;20052;-65
2023/08/27 11:19:57;;;;;;;1.05;0.82;;;19.60;76.10;;;;;;5036890;28;20112;-65
2023/08/27 11:22:23;;;;;;;0.88;0.80;;;19.70;66.00;;;;;;5039225;28;20081;-64
2023/08/27 11:24:52;;;;;;;1.05;0.60;;;19.70;60.00;;;;;;5024256;28;20041;-64
2023/08/27 11:27:19;;;;;;;0.80;0.57;;;19.70;61.90;;;;;;5037901;28;20367;-64
2023/08/27 11:29:51;;;;;;;1.02;0.68;;;19.70;63.80;;;;;;5048553;28;20534;-65
2023/08/27 11:32:20;;;;;;;1.00;0.60;;;19.80;65.00;;;;;;5060763;28;20048;-65
2023/08/27 11:34:49;;;;;;;0.77;0.67;;;19.90;63.30;;;;;;5048824;28;20085;-65
2023/08/27 11:37:15;;;;;;;0.93;0.60;;;20.10;57.90;;;;;;5069164;28;20045;-64
2023/08/27 11:39:41;;;;;;;1.25;0.88;;;20.00;54.10;;;;;;5054254;28;20053;-64
2023/08/27 11:42:16;;;;;;;1.00;0.50;;;20.00;52.80;;;;;;5068431;28;20037;-64
2023/08/27 11:44:53;;;;;;;0.77;0.47;;;19.80;61.30;;;;;;5058214;28;20076;-65
2023/08/27 11:47:20;;;;;;;0.98;0.80;;;19.70;62.10;;;;;;5031376;28;20044;-64
2023/08/27 11:49:47;;;;;;;1.17;0.60;;;19.40;50.50;;;;;;5053629;28;20456;-64
2023/08/27 11:52:14;;;;;;;0.98;0.82;;;19.20;50.30;;;;;;5045714;28;20045;-64
2023/08/27 11:54:41;;;;;;;0.65;0.63;;;19.10;60.50;;;;;;5059063;28;20106;-64
2023/08/27 11:57:08;;;;;;;1.45;0.60;;;18.90;62.40;;;;;;5046195;28;20040;-65
2023/08/27 11:59:33;;;;;;;1.67;0.82;;;18.80;67.20;;;;;;5054380;28;20047;-64
2023/08/27 12:02:02;;;;;;;1.45;0.80;;;18.60;69.70;;;;;;5060070;28;20036;-64
2023/08/27 12:04:28;;;;;;;0.60;0.60;;;18.50;70.50;;;;;;5050657;28;20491;-64
2023/08/27 12:06:59;;;;;;;1.10;0.57;;;18.40;73.90;;;;;;5052806;28;20060;-64
2023/08/27 12:09:27;;;;;;;3.35;0.70;;;18.30;81.20;;;;;;5050338;28;20047;-64
2023/08/27 12:11:54;;;;;;;2.42;1.45;;;18.30;83.70;;;;;;5059507;28;20139;-64
2023/08/27 12:14:25;;;;;;;1.27;0.80;;;18.20;87.00;;;;;;5057916;28;20036;-64
2023/08/27 12:16:52;;;;;;;0.82;0.70;;;18.20;84.90;;;;;;5055960;28;20167;-65
2023/08/27 12:19:22;;;;;;;6.57;0.90;;;18.20;83.40;;;;;;5057120;28;20049;-65
2023/08/27 12:21:50;;;;;;;1.17;0.85;;;18.10;88.10;;;;;;5057777;28;20443;-65
2023/08/27 12:24:26;;;;;;;4.15;0.95;;;18.20;91.00;;;;;;5035191;28;20045;-65
2023/08/27 12:26:52;;;;;;;1.25;0.80;;;18.40;93.60;;;;;;5028723;28;20041;-65
2023/08/27 12:29:18;;;;;;;0.60;0.60;;;18.50;95.10;;;;;;5067498;28;20049;-65
2023/08/27 12:31:45;;;;;;;1.10;0.68;;;18.50;85.20;;;;;;5013518;28;20056;-65
2023/08/27 12:34:12;;;;;;;2.35;0.85;;;18.50;82.70;;;;;;5037341;28;20033;-65
2023/08/27 12:36:37;;;;;;;0.47;0.47;;;18.30;80.20;;;;;;5014750;28;20040;-65
2023/08/27 12:39:03;;;;;;;3.03;0.30;;;18.20;85.50;;;;;;5062764;28;20055;-65
2023/08/27 12:41:29;;;;;;;1.63;0.52;;;18.00;76.90;;;;;;5067281;28;20052;-64
2023/08/27 12:43:55;;;;;;;0.40;0.40;;;17.80;79.90;;;;;;5022415;28;20086;-64
2023/08/27 12:46:23;;;;;;;0.95;0.50;;;17.70;84.20;;;;;;5034706;28;20139;-65
2023/08/27 12:48:49;;;;;;;0.52;0.40;;;17.70;86.60;;;;;;5071783;28;20029;-64